createdAt,value
2022-10-11T00:00:43.441Z,12.90
2022-10-11T00:03:10.544Z,15.37
2022-10-11T00:05:38.125Z,19.33
2022-10-11T00:08:05.531Z,19.10
2022-10-11T00:10:32.705Z,15.13
2022-10-11T00:12:59.993Z,19.00
2022-10-11T00:15:27.069Z,15.90
2022-10-11T00:17:55.520Z,20.50
2022-10-11T00:20:22.976Z,14.40
2022-10-11T00:22:50.213Z,19.60
2022-10-11T00:25:17.719Z,17.93
2022-10-11T00:27:44.860Z,14.50
2022-10-11T00:30:12.507Z,12.87
2022-10-11T00:32:40.037Z,14.63
2022-10-11T00:35:08.872Z,19.00
2022-10-11T00:37:37.422Z,12.53
2022-10-11T00:40:05.139Z,16.00
2022-10-11T00:42:32.279Z,17.10
2022-10-11T00:45:14.274Z,16.13
2022-10-11T00:47:41.551Z,19.00
2022-10-11T00:50:11.370Z,26.13
2022-10-11T00:52:41.045Z,24.67
2022-10-11T00:55:09.923Z,11.30
2022-10-11T00:57:38.780Z,62.40
2022-10-11T01:00:08.747Z,22.73
2022-10-11T01:02:35.874Z,24.20
2022-10-11T01:05:25.660Z,16.97
2022-10-11T01:07:51.736Z,24.20
2022-10-11T01:10:18.880Z,16.17
2022-10-11T01:12:49.825Z,29.10
2022-10-11T01:15:19.986Z,14.43
2022-10-11T01:17:51.199Z,22.30
2022-10-11T01:20:27.860Z,25.70
2022-10-11T01:23:20.846Z,20.23
2022-10-11T01:25:54.458Z,27.30
2022-10-11T01:28:27.836Z,12.77
2022-10-11T01:30:59.797Z,22.20
2022-10-11T01:33:29.618Z,19.07
2022-10-11T01:36:00.153Z,27.43
2022-10-11T01:38:30.887Z,17.63
2022-10-11T01:40:59.368Z,17.07
2022-10-11T01:43:26.834Z,29.20
2022-10-11T01:45:55.186Z,20.90
2022-10-11T01:48:23.613Z,20.93
2022-10-11T01:50:51.511Z,18.73
2022-10-11T01:53:39.585Z,16.37
2022-10-11T01:56:10.533Z,15.80
2022-10-11T01:58:46.092Z,20.63
2022-10-11T02:01:20.695Z,19.70
2022-10-11T02:03:52.713Z,29.33
2022-10-11T02:06:22.111Z,11.70
2022-10-11T02:08:53.424Z,16.70
2022-10-11T02:11:22.996Z,16.50
2022-10-11T02:13:52.577Z,21.93
2022-10-11T02:16:21.948Z,29.70
2022-10-11T02:18:52.247Z,17.90
2022-10-11T02:21:20.815Z,19.50
2022-10-11T02:23:49.087Z,21.47
2022-10-11T02:26:16.795Z,23.30
2022-10-11T02:28:44.666Z,19.00
2022-10-11T02:31:12.758Z,19.50
2022-10-11T02:33:41.180Z,13.93
2022-10-11T02:36:12.330Z,19.93
2022-10-11T02:38:40.807Z,20.23
2022-10-11T02:41:11.402Z,31.90
2022-10-11T02:43:39.883Z,22.13
2022-10-11T02:46:08.021Z,22.43
2022-10-11T02:48:35.628Z,29.43
2022-10-11T02:51:03.067Z,17.20
2022-10-11T02:53:31.497Z,16.43
2022-10-11T02:55:58.598Z,24.17
2022-10-11T02:58:25.833Z,20.33
2022-10-11T03:00:52.936Z,19.20
2022-10-11T03:03:20.044Z,24.50
2022-10-11T03:05:47.166Z,15.03
2022-10-11T03:08:15.865Z,17.17
2022-10-11T03:10:44.407Z,22.90
2022-10-11T03:13:15.961Z,17.90
2022-10-11T03:15:49.338Z,32.57
2022-10-11T03:18:16.638Z,27.80
2022-10-11T03:20:43.849Z,25.40
2022-10-11T03:23:11.019Z,31.63
2022-10-11T03:25:38.162Z,47.00
2022-10-11T03:28:06.790Z,32.17
2022-10-11T03:30:33.947Z,26.47
2022-10-11T03:33:01.066Z,26.27
2022-10-11T03:35:28.133Z,24.10
2022-10-11T03:37:55.250Z,28.23
2022-10-11T03:40:22.316Z,20.40
2022-10-11T03:42:49.414Z,26.27
2022-10-11T03:45:17.839Z,78.03
2022-10-11T03:47:44.942Z,41.60
2022-10-11T03:50:12.049Z,70.00
2022-10-11T03:52:39.156Z,84.37
2022-10-11T03:55:06.428Z,164.03
2022-10-11T03:57:33.511Z,174.77
2022-10-11T04:00:00.639Z,236.83
2022-10-11T04:02:29.063Z,132.23
2022-10-11T04:04:56.147Z,151.97
2022-10-11T04:07:23.291Z,66.40
2022-10-11T04:09:50.371Z,74.63
2022-10-11T04:12:17.449Z,68.20
2022-10-11T04:14:44.615Z,76.67
2022-10-11T04:17:11.682Z,78.33
2022-10-11T04:19:40.122Z,62.73
2022-10-11T04:22:07.743Z,97.43
2022-10-11T04:24:34.857Z,94.00
2022-10-11T04:27:01.975Z,85.00
2022-10-11T04:29:32.559Z,24.33
2022-10-11T04:32:00.004Z,27.27
2022-10-11T04:34:27.132Z,41.97
2022-10-11T04:36:55.558Z,34.77
2022-10-11T04:39:22.665Z,87.60
2022-10-11T04:41:49.721Z,99.23
2022-10-11T04:44:16.836Z,57.73
2022-10-11T04:46:43.963Z,130.27
2022-10-11T04:49:11.098Z,59.10
2022-10-11T04:51:38.174Z,90.07
2022-10-11T04:54:06.659Z,120.30
2022-10-11T04:56:33.771Z,191.43
2022-10-11T04:59:00.897Z,91.93
2022-10-11T05:01:28.009Z,95.97
2022-10-11T05:03:55.169Z,90.93
2022-10-11T05:06:22.223Z,245.90
2022-10-11T05:08:49.303Z,168.67
2022-10-11T05:11:17.974Z,249.37
2022-10-11T05:13:45.565Z,137.27
2022-10-11T05:16:13.259Z,79.13
2022-10-11T05:18:40.595Z,197.60
2022-10-11T05:21:08.608Z,78.47
2022-10-11T05:23:36.479Z,73.53
2022-10-11T05:26:03.993Z,94.47
2022-10-11T05:28:32.937Z,106.30
2022-10-11T05:31:00.103Z,180.77
2022-10-11T05:33:27.512Z,65.40
2022-10-11T05:35:54.689Z,152.67
2022-10-11T05:38:21.957Z,195.00
2022-10-11T05:40:49.161Z,164.70
2022-10-11T05:43:16.291Z,188.87
2022-10-11T05:45:44.975Z,157.37
2022-10-11T05:48:12.094Z,199.50
2022-10-11T05:50:39.695Z,176.63
2022-10-11T05:53:07.457Z,293.83
2022-10-11T05:55:36.413Z,226.10
2022-10-11T05:58:03.509Z,302.27
2022-10-11T06:00:30.629Z,136.10
2022-10-11T06:02:59.090Z,186.17
2022-10-11T06:05:26.188Z,339.93
2022-10-11T06:07:53.288Z,210.60
2022-10-11T06:10:20.446Z,165.83
2022-10-11T06:12:47.566Z,151.03
2022-10-11T06:15:14.672Z,213.17
2022-10-11T06:17:41.823Z,193.77
2022-10-11T06:20:10.782Z,239.27
2022-10-11T06:22:37.848Z,281.43
2022-10-11T06:25:05.400Z,305.27
2022-10-11T06:27:32.720Z,145.77
2022-10-11T06:30:00.020Z,318.67
2022-10-11T06:32:27.470Z,150.67
2022-10-11T06:34:54.592Z,284.03
2022-10-11T06:37:23.034Z,204.73
2022-10-11T06:39:50.210Z,294.27
2022-10-11T06:42:17.889Z,161.90
2022-10-11T06:44:44.974Z,316.73
2022-10-11T06:47:12.108Z,179.43
2022-10-11T06:49:39.178Z,150.83
2022-10-11T06:52:06.278Z,179.67
2022-10-11T06:54:34.693Z,290.60
2022-10-11T06:57:01.849Z,412.43
2022-10-11T06:59:28.977Z,334.37
2022-10-11T07:01:56.085Z,151.43
2022-10-11T07:04:23.182Z,218.53
2022-10-11T07:06:50.409Z,261.10
2022-10-11T07:09:17.515Z,144.57
2022-10-11T07:11:46.106Z,260.97
2022-10-11T07:14:13.226Z,194.90
2022-10-11T07:16:40.390Z,100.50
2022-10-11T07:19:07.601Z,134.77
2022-10-11T07:21:35.612Z,299.07
2022-10-11T07:24:02.886Z,116.93
2022-10-11T07:26:36.642Z,333.43
2022-10-11T07:29:06.639Z,251.37
2022-10-11T07:31:33.776Z,128.33
2022-10-11T07:34:00.884Z,129.77
2022-10-11T07:36:28.033Z,169.70
2022-10-11T07:38:56.009Z,107.07
2022-10-11T07:41:23.174Z,109.97
2022-10-11T07:43:50.288Z,65.23
2022-10-11T07:46:19.025Z,153.10
2022-10-11T07:48:46.238Z,123.07
2022-10-11T07:51:14.872Z,206.10
2022-10-11T07:53:42.371Z,205.60
2022-10-11T07:56:10.642Z,212.43
2022-10-11T07:58:37.750Z,93.70
2022-10-11T08:01:04.969Z,83.20
2022-10-11T08:03:33.583Z,122.17
2022-10-11T08:06:01.472Z,101.10
2022-10-11T08:08:28.788Z,141.80
2022-10-11T08:10:55.900Z,105.13
2022-10-11T08:13:23.151Z,127.43
2022-10-11T08:15:50.366Z,155.50
2022-10-11T08:18:17.889Z,162.83
2022-10-11T08:20:46.396Z,170.00
2022-10-11T08:23:13.497Z,108.97
2022-10-11T08:25:42.440Z,73.07
2022-10-11T08:28:09.613Z,174.77
2022-10-11T08:30:36.750Z,102.80
2022-10-11T08:33:08.313Z,186.07
2022-10-11T08:35:36.638Z,91.50
2022-10-11T08:38:05.047Z,108.57
2022-10-11T08:40:35.274Z,78.53
2022-10-11T08:43:04.591Z,82.07
2022-10-11T08:45:34.241Z,57.90
2022-10-11T08:48:07.350Z,85.23
2022-10-11T08:50:35.084Z,67.10
2022-10-11T08:53:05.463Z,55.93
2022-10-11T08:55:34.798Z,89.43
2022-10-11T08:58:02.649Z,74.33
2022-10-11T09:00:32.034Z,131.43
2022-10-11T09:03:09.391Z,73.97
2022-10-11T09:05:40.450Z,65.20
2022-10-11T09:08:12.040Z,68.37
2022-10-11T09:10:48.989Z,78.33
2022-10-11T09:13:22.569Z,75.33
2022-10-11T09:15:52.924Z,67.80
2022-10-11T09:18:27.123Z,78.40
2022-10-11T09:21:00.350Z,109.33
2022-10-11T09:23:39.382Z,90.27
2022-10-11T09:26:10.002Z,98.47
2022-10-11T09:28:43.388Z,86.10
2022-10-11T09:31:11.396Z,78.27
2022-10-11T09:33:40.736Z,97.07
2022-10-11T09:36:14.768Z,89.13
2022-10-11T09:38:46.565Z,88.97
2022-10-11T09:41:17.209Z,99.67
2022-10-11T09:43:46.255Z,83.20
2022-10-11T09:46:18.356Z,82.43
2022-10-11T09:48:45.568Z,75.83
2022-10-11T09:51:15.374Z,83.67
2022-10-11T09:53:54.775Z,70.47
2022-10-11T09:56:22.245Z,89.47
2022-10-11T09:58:49.381Z,81.90
2022-10-11T10:01:23.762Z,80.17
2022-10-11T10:04:04.730Z,91.90
2022-10-11T10:06:31.829Z,79.80
2022-10-11T10:09:20.097Z,84.63
2022-10-11T10:11:47.222Z,75.37
2022-10-11T10:14:20.595Z,81.10
2022-10-11T10:16:47.866Z,80.33
2022-10-11T10:19:17.744Z,88.43
2022-10-11T10:21:46.091Z,76.90
2022-10-11T10:24:19.687Z,92.80
2022-10-11T10:27:05.505Z,101.53
2022-10-11T10:29:33.087Z,94.53
2022-10-11T10:32:13.886Z,77.07
2022-10-11T10:34:55.897Z,78.67
2022-10-11T10:37:26.107Z,85.87
2022-10-11T10:39:56.981Z,77.47
2022-10-11T10:42:24.061Z,87.57
2022-10-11T10:44:52.870Z,97.30
2022-10-11T10:47:24.638Z,73.73
2022-10-11T10:49:55.663Z,89.63
2022-10-11T10:52:30.842Z,65.03
2022-10-11T10:55:04.107Z,77.00
2022-10-11T10:57:35.441Z,65.63
2022-10-11T11:00:05.741Z,66.77
2022-10-11T11:02:40.814Z,65.67
2022-10-11T11:05:13.853Z,72.80
2022-10-11T11:07:44.305Z,70.33
2022-10-11T11:10:16.344Z,74.00
2022-10-11T11:12:45.960Z,66.43
2022-10-11T11:15:19.651Z,80.33
2022-10-11T11:18:00.376Z,69.43
2022-10-11T11:20:31.180Z,65.43
2022-10-11T11:23:02.954Z,62.87
2022-10-11T11:25:39.286Z,63.23
2022-10-11T11:28:16.798Z,56.77
2022-10-11T11:30:47.946Z,60.07
2022-10-11T11:33:21.722Z,68.30
2022-10-11T11:35:50.214Z,67.00
2022-10-11T11:38:19.286Z,66.10
2022-10-11T11:40:50.128Z,67.60
2022-10-11T11:43:20.410Z,57.70
2022-10-11T11:45:49.140Z,56.53
2022-10-11T11:48:18.356Z,57.97
2022-10-11T11:50:47.694Z,46.30
2022-10-11T11:53:16.040Z,53.80
2022-10-11T11:55:46.145Z,48.83
2022-10-11T11:58:21.493Z,53.30
2022-10-11T12:00:53.540Z,52.73
2022-10-11T12:03:22.319Z,49.40
2022-10-11T12:06:04.268Z,52.07
2022-10-11T12:08:32.444Z,50.47
2022-10-11T12:11:01.310Z,57.13
2022-10-11T12:13:33.684Z,52.73
2022-10-11T12:16:07.746Z,48.10
2022-10-11T12:18:38.188Z,46.60
2022-10-11T12:21:19.265Z,46.43
2022-10-11T12:23:47.479Z,48.83
2022-10-11T12:26:41.752Z,43.87
2022-10-11T12:29:28.432Z,33.10
2022-10-11T12:32:15.059Z,40.33
2022-10-11T12:34:44.451Z,32.17
2022-10-11T12:37:26.404Z,30.23
2022-10-11T12:39:53.989Z,35.97
2022-10-11T12:42:25.940Z,23.73
2022-10-11T12:45:11.582Z,24.00
2022-10-11T12:47:41.933Z,31.10
2022-10-11T12:50:16.557Z,25.27
2022-10-11T12:52:51.872Z,23.23
2022-10-11T12:55:26.738Z,25.80
2022-10-11T12:58:06.556Z,24.53
2022-10-11T13:00:41.088Z,18.60
2022-10-11T13:03:32.249Z,18.17
2022-10-11T13:06:10.945Z,19.90
2022-10-11T13:08:40.472Z,21.23
2022-10-11T13:11:10.055Z,26.33
2022-10-11T13:13:39.036Z,20.90
2022-10-11T13:16:09.287Z,16.40
2022-10-11T13:18:36.503Z,17.30
2022-10-11T13:21:16.615Z,15.13
2022-10-11T13:23:46.160Z,13.47
2022-10-11T13:26:13.675Z,14.23
2022-10-11T13:28:41.339Z,12.77
2022-10-11T13:31:09.586Z,18.63
2022-10-11T13:33:40.177Z,17.30
2022-10-11T13:36:13.728Z,15.93
2022-10-11T13:38:40.817Z,15.87
2022-10-11T13:41:09.099Z,13.07
2022-10-11T13:43:36.888Z,14.73
2022-10-11T13:46:04.518Z,13.83
2022-10-11T13:48:32.367Z,17.53
2022-10-11T13:51:06.287Z,12.00
2022-10-11T13:53:34.758Z,8.07
2022-10-11T13:56:03.151Z,13.87
2022-10-11T13:58:32.766Z,10.50
2022-10-11T14:01:01.181Z,8.73
2022-10-11T14:03:36.315Z,10.20
2022-10-11T14:06:03.963Z,20.10
2022-10-11T14:08:31.994Z,9.03
2022-10-11T14:11:06.129Z,20.03
2022-10-11T14:13:35.549Z,10.60
2022-10-11T14:16:05.330Z,12.50
2022-10-11T14:18:35.247Z,7.57
2022-10-11T14:21:17.208Z,14.00
2022-10-11T14:23:44.349Z,12.43
2022-10-11T14:26:17.769Z,15.20
2022-10-11T14:28:46.161Z,15.27
2022-10-11T14:31:13.360Z,12.10
2022-10-11T14:33:40.484Z,11.17
2022-10-11T14:36:08.462Z,14.63
2022-10-11T14:38:35.915Z,9.33
2022-10-11T14:41:03.043Z,11.47
2022-10-11T14:43:31.469Z,13.90
2022-10-11T14:45:58.611Z,15.07
2022-10-11T14:48:50.134Z,16.80
2022-10-11T14:51:13.473Z,14.70
2022-10-11T14:53:41.055Z,16.47
2022-10-11T14:56:08.766Z,18.87
2022-10-11T14:58:37.352Z,13.50
2022-10-11T15:01:04.547Z,14.47
2022-10-11T15:03:31.638Z,12.33
2022-10-11T15:05:58.775Z,13.32
2022-10-11T15:08:25.875Z,19.43
2022-10-11T15:10:53.808Z,18.43
2022-10-11T15:13:20.886Z,12.83
2022-10-11T15:15:49.352Z,14.50
2022-10-11T15:18:16.481Z,23.70
2022-10-11T15:20:44.438Z,13.23
2022-10-11T15:23:11.983Z,13.23
2022-10-11T15:25:40.040Z,16.83
2022-10-11T15:28:07.826Z,15.20
2022-10-11T15:30:40.088Z,12.93
2022-10-11T15:33:10.034Z,10.60
2022-10-11T15:35:37.146Z,18.93
2022-10-11T15:38:04.254Z,12.53
2022-10-11T15:40:33.104Z,12.57
2022-10-11T15:43:00.206Z,13.53
2022-10-11T15:45:27.301Z,14.73
2022-10-11T15:47:54.387Z,11.17
2022-10-11T15:50:23.819Z,10.70
2022-10-11T15:52:51.192Z,9.43
2022-10-11T15:55:18.468Z,13.70
2022-10-11T15:57:45.550Z,13.53
2022-10-11T16:00:12.982Z,14.70
2022-10-11T16:02:40.262Z,14.57
2022-10-11T16:05:07.483Z,14.37
2022-10-11T16:07:36.038Z,18.87
2022-10-11T16:10:03.160Z,10.50
2022-10-11T16:12:30.267Z,13.63
2022-10-11T16:14:57.403Z,19.93
2022-10-11T16:17:24.508Z,16.07
2022-10-11T16:19:51.610Z,17.30
2022-10-11T16:22:18.682Z,17.87
2022-10-11T16:24:47.115Z,16.23
2022-10-11T16:27:18.599Z,13.80
2022-10-11T16:29:46.062Z,16.90
2022-10-11T16:32:13.148Z,17.63
2022-10-11T16:34:40.261Z,17.37
2022-10-11T16:37:07.322Z,11.60
2022-10-11T16:39:34.433Z,13.10
2022-10-11T16:42:02.971Z,13.87
2022-10-11T16:44:30.049Z,14.63
2022-10-11T16:46:57.173Z,10.23
2022-10-11T16:49:25.370Z,17.83
2022-10-11T16:51:53.264Z,14.20
2022-10-11T16:54:21.007Z,10.87
2022-10-11T16:56:48.266Z,14.53
2022-10-11T16:59:16.984Z,16.23
2022-10-11T17:01:44.184Z,13.67
2022-10-11T17:04:11.361Z,19.17
2022-10-11T17:06:38.481Z,18.00
2022-10-11T17:09:05.612Z,15.47
2022-10-11T17:11:32.724Z,10.67
2022-10-11T17:14:00.593Z,13.47
2022-10-11T17:16:29.034Z,17.83
2022-10-11T17:18:56.147Z,12.50
2022-10-11T17:21:23.458Z,12.13
2022-10-11T17:23:51.046Z,10.80
2022-10-11T17:26:19.638Z,20.40
2022-10-11T17:28:47.031Z,9.83
2022-10-11T17:31:14.184Z,12.50
2022-10-11T17:33:42.626Z,13.40
2022-10-11T17:36:23.680Z,11.67
2022-10-11T17:38:51.074Z,14.00
2022-10-11T17:41:18.231Z,17.60
2022-10-11T17:43:45.356Z,10.80
2022-10-11T17:46:13.084Z,15.50
2022-10-11T17:48:40.718Z,14.53
2022-10-11T17:51:09.858Z,10.97
2022-10-11T17:53:37.188Z,20.70
2022-10-11T17:56:04.847Z,12.30
2022-10-11T17:58:31.932Z,9.93
2022-10-11T18:01:01.729Z,7.17
2022-10-11T18:03:28.871Z,17.10
2022-10-11T18:05:55.971Z,13.47
2022-10-11T18:08:24.397Z,18.73
2022-10-11T18:10:51.503Z,8.73
2022-10-11T18:13:18.607Z,25.63
2022-10-11T18:15:48.184Z,19.80
2022-10-11T18:18:18.539Z,10.23
2022-10-11T18:20:46.461Z,11.70
2022-10-11T18:23:14.635Z,9.60
2022-10-11T18:25:43.041Z,13.53
2022-10-11T18:28:10.197Z,24.87
2022-10-11T18:30:41.366Z,15.60
2022-10-11T18:33:08.460Z,12.03
2022-10-11T18:35:35.540Z,13.33
2022-10-11T18:38:02.697Z,15.57
2022-10-11T18:40:29.779Z,14.97
2022-10-11T18:42:58.212Z,12.87
2022-10-11T18:45:25.322Z,9.57
2022-10-11T18:47:52.453Z,11.07
2022-10-11T18:50:19.591Z,14.70
2022-10-11T18:52:46.741Z,15.73
2022-10-11T18:55:13.844Z,18.67
2022-10-11T18:57:41.259Z,23.33
2022-10-11T19:00:22.722Z,22.77
2022-10-11T19:02:57.950Z,19.10
2022-10-11T19:05:25.048Z,15.90
2022-10-11T19:07:52.216Z,19.60
2022-10-11T19:10:19.299Z,18.27
2022-10-11T19:12:46.435Z,17.10
2022-10-11T19:15:14.905Z,25.03
2022-10-11T19:17:41.988Z,18.57
2022-10-11T19:20:09.377Z,17.07
2022-10-11T19:22:36.508Z,12.27
2022-10-11T19:25:03.641Z,23.80
2022-10-11T19:27:30.728Z,16.67
2022-10-11T19:29:57.826Z,18.10
2022-10-11T19:32:26.350Z,14.03
2022-10-11T19:34:53.447Z,10.70
2022-10-11T19:37:20.544Z,12.20
2022-10-11T19:39:47.639Z,24.47
2022-10-11T19:42:14.713Z,15.03
2022-10-11T19:44:41.784Z,16.37
2022-10-11T19:47:08.840Z,16.20
2022-10-11T19:49:37.292Z,19.13
2022-10-11T19:52:04.372Z,17.83
2022-10-11T19:54:31.537Z,14.40
2022-10-11T19:56:58.600Z,18.23
2022-10-11T19:59:25.684Z,13.60
2022-10-11T20:01:53.493Z,16.97
2022-10-11T20:04:51.142Z,11.03
2022-10-11T20:07:09.479Z,13.23
2022-10-11T20:09:36.663Z,19.47
2022-10-11T20:12:03.742Z,13.07
2022-10-11T20:14:30.851Z,15.93
2022-10-11T20:16:57.934Z,11.83
2022-10-11T20:19:30.688Z,13.27
2022-10-11T20:21:58.880Z,11.50
2022-10-11T20:24:27.703Z,16.83
2022-10-11T20:26:54.815Z,25.87
2022-10-11T20:29:21.908Z,12.83
2022-10-11T20:31:49.033Z,18.03
2022-10-11T20:34:16.068Z,15.10
2022-10-11T20:36:48.232Z,15.70
2022-10-11T20:39:16.283Z,18.90
2022-10-11T20:41:44.729Z,13.20
2022-10-11T20:44:11.838Z,18.90
2022-10-11T20:46:39.870Z,15.83
2022-10-11T20:49:07.918Z,17.43
2022-10-11T20:51:35.882Z,16.00
2022-10-11T20:54:02.966Z,14.90
2022-10-11T20:56:30.104Z,15.43
2022-10-11T20:58:58.802Z,14.53
2022-10-11T21:01:26.598Z,18.77
2022-10-11T21:03:53.933Z,14.23
2022-10-11T21:06:21.086Z,20.57
2022-10-11T21:08:48.185Z,15.93
2022-10-11T21:11:15.308Z,12.70
2022-10-11T21:13:42.426Z,12.67
2022-10-11T21:16:12.526Z,11.50
2022-10-11T21:18:40.061Z,18.87
2022-10-11T21:21:07.909Z,14.50
2022-10-11T21:23:35.047Z,16.10
2022-10-11T21:26:02.446Z,10.57
2022-10-11T21:28:29.698Z,10.73
2022-10-11T21:31:02.788Z,19.83
2022-10-11T21:33:31.305Z,14.77
2022-10-11T21:35:58.383Z,18.27
2022-10-11T21:38:25.573Z,11.93
2022-10-11T21:40:52.650Z,15.83
2022-10-11T21:43:19.774Z,11.33
2022-10-11T21:45:46.891Z,19.97
2022-10-11T21:48:13.988Z,13.97
2022-10-11T21:50:42.421Z,11.30
2022-10-11T21:53:09.548Z,10.80
2022-10-11T21:55:36.656Z,17.40
2022-10-11T21:58:03.806Z,15.67
2022-10-11T22:00:30.897Z,13.30
2022-10-11T22:02:58.007Z,17.00
2022-10-11T22:05:25.138Z,19.00
2022-10-11T22:07:53.550Z,14.17
2022-10-11T22:10:20.630Z,11.40
2022-10-11T22:12:47.726Z,8.10
2022-10-11T22:15:14.906Z,12.70
2022-10-11T22:17:41.984Z,16.00
2022-10-11T22:20:09.464Z,12.70
2022-10-11T22:22:36.988Z,12.27
2022-10-11T22:25:06.634Z,16.23
2022-10-11T22:27:33.733Z,19.70
2022-10-11T22:30:00.831Z,12.17
2022-10-11T22:32:27.906Z,11.83
2022-10-11T22:34:55.227Z,13.43
2022-10-11T22:37:22.364Z,15.33
2022-10-11T22:39:49.467Z,14.67
2022-10-11T22:42:17.892Z,8.53
2022-10-11T22:44:44.977Z,11.70
2022-10-11T22:47:12.070Z,15.17
2022-10-11T22:49:39.198Z,21.27
2022-10-11T22:52:06.318Z,16.60
2022-10-11T22:54:33.425Z,16.03
2022-10-11T22:57:00.526Z,17.00
2022-10-11T22:59:28.970Z,18.87
2022-10-11T23:01:56.063Z,16.93
2022-10-11T23:04:23.148Z,17.33
2022-10-11T23:06:50.253Z,19.03
2022-10-11T23:09:17.370Z,19.50
2022-10-11T23:11:44.465Z,16.80
2022-10-11T23:14:11.563Z,18.57
2022-10-11T23:16:40.021Z,14.97
2022-10-11T23:19:07.123Z,19.60
2022-10-11T23:21:34.204Z,10.30
2022-10-11T23:24:01.297Z,11.53
2022-10-11T23:26:28.378Z,12.17
2022-10-11T23:28:55.641Z,17.50
2022-10-11T23:31:22.761Z,9.90
2022-10-11T23:33:51.277Z,23.53
2022-10-11T23:36:19.407Z,17.10
2022-10-11T23:38:50.209Z,12.33
2022-10-11T23:41:17.298Z,19.67
2022-10-11T23:43:44.399Z,15.40
2022-10-11T23:46:11.495Z,14.60
2022-10-11T23:48:38.588Z,23.47
2022-10-11T23:51:07.133Z,15.03
2022-10-11T23:53:36.117Z,21.90
2022-10-11T23:56:03.490Z,23.93
2022-10-11T23:58:30.570Z,17.20
